sensor_id;sensor_type;location;lat;lon;timestamp;pressure;altitude;pressure_sealevel;temperature;humidity
44751;BME280;30477;48.224;11.470;2023-04-15T00:01:46;94998.75;;;6.40;75.86
44751;BME280;30477;48.224;11.470;2023-04-15T00:04:12;94999.41;;;6.42;75.89
44751;BME280;30477;48.224;11.470;2023-04-15T00:06:37;95007.41;;;6.39;75.69
44751;BME280;30477;48.224;11.470;2023-04-15T00:09:04;95000.41;;;6.32;75.64
44751;BME280;30477;48.224;11.470;2023-04-15T00:11:30;94999.47;;;6.23;75.74
44751;BME280;30477;48.224;11.470;2023-04-15T00:13:55;94998.00;;;6.30;76.26
44751;BME280;30477;48.224;11.470;2023-04-15T00:16:20;94998.78;;;6.30;75.91
44751;BME280;30477;48.224;11.470;2023-04-15T00:18:46;94994.44;;;6.31;75.84
44751;BME280;30477;48.224;11.470;2023-04-15T00:21:11;94988.78;;;6.27;76.01
44751;BME280;30477;48.224;11.470;2023-04-15T00:23:36;94991.34;;;6.27;76.06
44751;BME280;30477;48.224;11.470;2023-04-15T00:26:02;94991.88;;;6.31;76.04
44751;BME280;30477;48.224;11.470;2023-04-15T00:28:27;94988.09;;;6.35;76.05
44751;BME280;30477;48.224;11.470;2023-04-15T00:30:53;94987.41;;;6.33;76.23
44751;BME280;30477;48.224;11.470;2023-04-15T00:33:18;94985.69;;;6.24;76.03
44751;BME280;30477;48.224;11.470;2023-04-15T00:35:44;94985.59;;;6.16;75.93
44751;BME280;30477;48.224;11.470;2023-04-15T00:38:09;94987.22;;;6.07;76.10
44751;BME280;30477;48.224;11.470;2023-04-15T00:40:34;94979.91;;;6.02;76.57
44751;BME280;30477;48.224;11.470;2023-04-15T00:43:00;94982.59;;;6.10;76.64
44751;BME280;30477;48.224;11.470;2023-04-15T00:45:26;94978.13;;;6.13;76.89
44751;BME280;30477;48.224;11.470;2023-04-15T00:47:55;94970.31;;;6.04;76.46
44751;BME280;30477;48.224;11.470;2023-04-15T00:50:21;94968.31;;;5.98;76.51
44751;BME280;30477;48.224;11.470;2023-04-15T00:52:46;94968.56;;;6.05;77.06
44751;BME280;30477;48.224;11.470;2023-04-15T00:55:12;94972.75;;;6.16;76.90
44751;BME280;30477;48.224;11.470;2023-04-15T00:57:38;94973.53;;;6.16;76.61
44751;BME280;30477;48.224;11.470;2023-04-15T01:00:04;94967.91;;;6.03;76.50
44751;BME280;30477;48.224;11.470;2023-04-15T01:02:32;94968.81;;;5.92;76.53
44751;BME280;30477;48.224;11.470;2023-04-15T01:04:58;94963.44;;;5.95;76.80
44751;BME280;30477;48.224;11.470;2023-04-15T01:07:23;94966.94;;;5.94;76.89
44751;BME280;30477;48.224;11.470;2023-04-15T01:09:48;94966.13;;;5.94;76.78
44751;BME280;30477;48.224;11.470;2023-04-15T01:12:15;94960.97;;;5.94;76.94
44751;BME280;30477;48.224;11.470;2023-04-15T01:14:41;94968.31;;;5.98;77.14
44751;BME280;30477;48.224;11.470;2023-04-15T01:17:06;94971.53;;;6.00;77.11
44751;BME280;30477;48.224;11.470;2023-04-15T01:19:32;94959.38;;;5.93;76.76
44751;BME280;30477;48.224;11.470;2023-04-15T01:21:58;94966.13;;;5.94;76.97
44751;BME280;30477;48.224;11.470;2023-04-15T01:24:25;94965.88;;;5.97;77.07
44751;BME280;30477;48.224;11.470;2023-04-15T01:26:51;94962.59;;;6.04;76.99
44751;BME280;30477;48.224;11.470;2023-04-15T01:29:16;94960.34;;;6.01;76.74
44751;BME280;30477;48.224;11.470;2023-04-15T01:31:53;94963.44;;;5.95;76.82
44751;BME280;30477;48.224;11.470;2023-04-15T01:34:19;94965.06;;;5.96;76.90
44751;BME280;30477;48.224;11.470;2023-04-15T01:36:45;94962.88;;;5.92;76.85
44751;BME280;30477;48.224;11.470;2023-04-15T01:39:11;94969.66;;;5.83;76.93
44751;BME280;30477;48.224;11.470;2023-04-15T01:41:36;94967.75;;;5.85;77.12
44751;BME280;30477;48.224;11.470;2023-04-15T01:44:02;94965.88;;;5.97;77.36
44751;BME280;30477;48.224;11.470;2023-04-15T01:46:27;94970.47;;;6.03;77.14
44751;BME280;30477;48.224;11.470;2023-04-15T01:48:53;94967.75;;;6.04;77.05
44751;BME280;30477;48.224;11.470;2023-04-15T01:51:18;94973.84;;;6.03;76.87
44751;BME280;30477;48.224;11.470;2023-04-15T01:53:44;94977.09;;;6.05;76.71
44751;BME280;30477;48.224;11.470;2023-04-15T01:56:10;94973.00;;;6.13;76.89
44751;BME280;30477;48.224;11.470;2023-04-15T01:58:36;94973.66;;;6.15;76.53
44751;BME280;30477;48.224;11.470;2023-04-15T02:01:01;94970.16;;;6.16;76.51
44751;BME280;30477;48.224;11.470;2023-04-15T02:03:28;94975.16;;;6.17;76.42
44751;BME280;30477;48.224;11.470;2023-04-15T02:05:53;94970.16;;;6.16;76.18
44751;BME280;30477;48.224;11.470;2023-04-15T02:08:19;94963.41;;;6.15;75.99
44751;BME280;30477;48.224;11.470;2023-04-15T02:10:44;94970.16;;;6.16;76.06
44751;BME280;30477;48.224;11.470;2023-04-15T02:13:09;94970.16;;;6.16;76.18
44751;BME280;30477;48.224;11.470;2023-04-15T02:15:35;94971.63;;;6.18;75.91
44751;BME280;30477;48.224;11.470;2023-04-15T02:18:00;94968.78;;;6.21;75.93
44751;BME280;30477;48.224;11.470;2023-04-15T02:20:26;94967.31;;;6.19;75.67
44751;BME280;30477;48.224;11.470;2023-04-15T02:22:52;94972.44;;;6.19;75.80
44751;BME280;30477;48.224;11.470;2023-04-15T02:25:17;94968.41;;;6.16;75.84
44751;BME280;30477;48.224;11.470;2023-04-15T02:27:43;94970.00;;;6.17;75.73
44751;BME280;30477;48.224;11.470;2023-04-15T02:30:09;94972.06;;;6.14;75.33
44751;BME280;30477;48.224;11.470;2023-04-15T02:32:34;94973.28;;;6.09;75.52
44751;BME280;30477;48.224;11.470;2023-04-15T02:35:03;94974.53;;;6.05;75.39
44751;BME280;30477;48.224;11.470;2023-04-15T02:37:29;94970.84;;;6.08;75.30
44751;BME280;30477;48.224;11.470;2023-04-15T02:39:55;94968.81;;;6.12;75.41
44751;BME280;30477;48.224;11.470;2023-04-15T02:42:21;94973.97;;;6.02;75.64
44751;BME280;30477;48.224;11.470;2023-04-15T02:44:46;94968.28;;;6.08;75.49
44751;BME280;30477;48.224;11.470;2023-04-15T02:47:11;94975.75;;;6.01;75.49
44751;BME280;30477;48.224;11.470;2023-04-15T02:49:38;94975.75;;;6.01;75.45
44751;BME280;30477;48.224;11.470;2023-04-15T02:52:04;94971.53;;;5.90;75.62
44751;BME280;30477;48.224;11.470;2023-04-15T02:54:30;94967.88;;;5.83;75.43
44751;BME280;30477;48.224;11.470;2023-04-15T02:56:58;94971.69;;;5.79;75.71
44751;BME280;30477;48.224;11.470;2023-04-15T02:59:23;94974.97;;;5.72;75.65
44751;BME280;30477;48.224;11.470;2023-04-15T03:01:48;94971.03;;;5.58;75.76
44751;BME280;30477;48.224;11.470;2023-04-15T03:04:14;94974.41;;;5.58;75.87
44751;BME280;30477;48.224;11.470;2023-04-15T03:06:39;94967.94;;;5.64;75.93
44751;BME280;30477;48.224;11.470;2023-04-15T03:09:04;94969.56;;;5.55;75.86
44751;BME280;30477;48.224;11.470;2023-04-15T03:11:30;94967.94;;;5.54;75.87
44751;BME280;30477;48.224;11.470;2023-04-15T03:13:56;94969.00;;;5.52;75.88
44751;BME280;30477;48.224;11.470;2023-04-15T03:16:22;94972.00;;;5.47;76.19
44751;BME280;30477;48.224;11.470;2023-04-15T03:18:48;94969.13;;;5.50;76.00
44751;BME280;30477;48.224;11.470;2023-04-15T03:21:13;94977.50;;;5.52;75.89
44751;BME280;30477;48.224;11.470;2023-04-15T03:23:38;94976.16;;;5.48;76.16
44751;BME280;30477;48.224;11.470;2023-04-15T03:26:04;94982.38;;;5.45;75.98
44751;BME280;30477;48.224;11.470;2023-04-15T03:28:30;94983.88;;;5.48;75.95
44751;BME280;30477;48.224;11.470;2023-04-15T03:30:57;94979.41;;;5.50;75.99
44751;BME280;30477;48.224;11.470;2023-04-15T03:33:22;94983.75;;;5.49;75.99
44751;BME280;30477;48.224;11.470;2023-04-15T03:35:47;94985.38;;;5.51;76.26
44751;BME280;30477;48.224;11.470;2023-04-15T03:38:13;94984.97;;;5.55;76.14
44751;BME280;30477;48.224;11.470;2023-04-15T03:40:40;94981.84;;;5.52;76.01
44751;BME280;30477;48.224;11.470;2023-04-15T03:43:05;94985.88;;;5.54;75.91
44751;BME280;30477;48.224;11.470;2023-04-15T03:45:31;94989.66;;;5.50;76.03
44751;BME280;30477;48.224;11.470;2023-04-15T03:47:56;94986.56;;;5.56;76.40
44751;BME280;30477;48.224;11.470;2023-04-15T03:50:21;94993.75;;;5.53;76.00
44751;BME280;30477;48.224;11.470;2023-04-15T03:52:47;94996.44;;;5.51;76.03
44751;BME280;30477;48.224;11.470;2023-04-15T03:55:12;94990.63;;;5.49;76.04
44751;BME280;30477;48.224;11.470;2023-04-15T03:57:38;94989.41;;;5.43;76.17
44751;BME280;30477;48.224;11.470;2023-04-15T04:00:05;94992.91;;;5.52;76.21
44751;BME280;30477;48.224;11.470;2023-04-15T04:02:31;94988.19;;;5.47;76.13
44751;BME280;30477;48.224;11.470;2023-04-15T04:04:56;94983.75;;;5.40;75.95
44751;BME280;30477;48.224;11.470;2023-04-15T04:07:22;94983.88;;;5.28;75.93
44751;BME280;30477;48.224;11.470;2023-04-15T04:09:48;94988.06;;;5.29;76.35
44751;BME280;30477;48.224;11.470;2023-04-15T04:12:13;94985.91;;;5.35;76.36
44751;BME280;30477;48.224;11.470;2023-04-15T04:14:39;94985.91;;;5.44;76.40
44751;BME280;30477;48.224;11.470;2023-04-15T04:17:04;94987.78;;;5.52;76.55
44751;BME280;30477;48.224;11.470;2023-04-15T04:19:29;94983.59;;;5.51;76.20
44751;BME280;30477;48.224;11.470;2023-04-15T04:21:55;94985.34;;;5.60;76.18
44751;BME280;30477;48.224;11.470;2023-04-15T04:24:20;94981.03;;;5.70;75.97
44751;BME280;30477;48.224;11.470;2023-04-15T04:26:46;94980.22;;;5.60;75.84
44751;BME280;30477;48.224;11.470;2023-04-15T04:29:11;94988.03;;;5.68;75.72
44751;BME280;30477;48.224;11.470;2023-04-15T04:31:36;94986.16;;;5.70;75.35
44751;BME280;30477;48.224;11.470;2023-04-15T04:34:02;94988.03;;;5.68;75.52
44751;BME280;30477;48.224;11.470;2023-04-15T04:36:27;94984.25;;;5.73;75.25
44751;BME280;30477;48.224;11.470;2023-04-15T04:38:52;94987.25;;;5.68;74.89
44751;BME280;30477;48.224;11.470;2023-04-15T04:41:18;94985.09;;;5.54;75.12
44751;BME280;30477;48.224;11.470;2023-04-15T04:43:43;94992.38;;;5.58;74.88
44751;BME280;30477;48.224;11.470;2023-04-15T04:46:08;94990.78;;;5.57;75.16
44751;BME280;30477;48.224;11.470;2023-04-15T04:48:34;94994.00;;;5.49;75.23
44751;BME280;30477;48.224;11.470;2023-04-15T04:51:00;94999.41;;;5.37;75.17
44751;BME280;30477;48.224;11.470;2023-04-15T04:53:25;94992.41;;;5.48;75.49
44751;BME280;30477;48.224;11.470;2023-04-15T04:55:50;94992.22;;;5.50;75.25
44751;BME280;30477;48.224;11.470;2023-04-15T04:58:16;94992.38;;;5.58;74.96
44751;BME280;30477;48.224;11.470;2023-04-15T05:00:41;94987.53;;;5.55;75.03
44751;BME280;30477;48.224;11.470;2023-04-15T05:03:07;94991.31;;;5.51;74.90
44751;BME280;30477;48.224;11.470;2023-04-15T05:05:32;94997.50;;;5.58;75.02
44751;BME280;30477;48.224;11.470;2023-04-15T05:07:59;94995.09;;;5.57;74.74
44751;BME280;30477;48.224;11.470;2023-04-15T05:10:25;94994.41;;;5.64;74.94
44751;BME280;30477;48.224;11.470;2023-04-15T05:12:50;94991.84;;;5.64;74.45
44751;BME280;30477;48.224;11.470;2023-04-15T05:15:16;94995.91;;;5.57;74.51
44751;BME280;30477;48.224;11.470;2023-04-15T05:17:42;94990.47;;;5.60;74.19
44751;BME280;30477;48.224;11.470;2023-04-15T05:20:07;94992.13;;;5.61;74.14
44751;BME280;30477;48.224;11.470;2023-04-15T05:22:33;94987.78;;;5.52;73.87
44751;BME280;30477;48.224;11.470;2023-04-15T05:24:58;94985.91;;;5.35;73.78
44751;BME280;30477;48.224;11.470;2023-04-15T05:27:24;94993.88;;;5.32;73.88
44751;BME280;30477;48.224;11.470;2023-04-15T05:29:49;95004.00;;;5.23;73.93
44751;BME280;30477;48.224;11.470;2023-04-15T05:32:15;95000.47;;;5.24;74.03
44751;BME280;30477;48.224;11.470;2023-04-15T05:34:40;94995.09;;;5.27;74.11
44751;BME280;30477;48.224;11.470;2023-04-15T05:37:06;94998.72;;;5.25;74.05
44751;BME280;30477;48.224;11.470;2023-04-15T05:39:31;94991.03;;;5.25;73.90
44751;BME280;30477;48.224;11.470;2023-04-15T05:41:58;94990.78;;;5.38;73.54
44751;BME280;30477;48.224;11.470;2023-04-15T05:44:24;94990.63;;;5.29;73.42
44751;BME280;30477;48.224;11.470;2023-04-15T05:46:49;94993.03;;;5.31;73.17
44751;BME280;30477;48.224;11.470;2023-04-15T05:49:15;94997.78;;;5.26;72.93
44751;BME280;30477;48.224;11.470;2023-04-15T05:51:40;94992.78;;;5.24;72.65
44751;BME280;30477;48.224;11.470;2023-04-15T05:54:05;94987.25;;;5.19;72.29
44751;BME280;30477;48.224;11.470;2023-04-15T05:56:31;94996.03;;;5.17;72.21
44751;BME280;30477;48.224;11.470;2023-04-15T05:58:56;94995.88;;;5.18;72.40
44751;BME280;30477;48.224;11.470;2023-04-15T06:01:21;94990.47;;;5.21;71.90
44751;BME280;30477;48.224;11.470;2023-04-15T06:03:47;94999.09;;;5.20;71.79
44751;BME280;30477;48.224;11.470;2023-04-15T06:06:13;95000.19;;;5.18;71.32
44751;BME280;30477;48.224;11.470;2023-04-15T06:08:39;95006.97;;;5.19;71.24
44751;BME280;30477;48.224;11.470;2023-04-15T06:11:04;95002.88;;;5.16;71.19
44751;BME280;30477;48.224;11.470;2023-04-15T06:13:30;95001.84;;;5.19;71.00
44751;BME280;30477;48.224;11.470;2023-04-15T06:15:56;95002.78;;;5.27;70.96
44751;BME280;30477;48.224;11.470;2023-04-15T06:18:21;94995.34;;;5.24;70.73
44751;BME280;30477;48.224;11.470;2023-04-15T06:20:46;95002.63;;;5.29;70.92
44751;BME280;30477;48.224;11.470;2023-04-15T06:23:12;94991.97;;;5.34;70.76
44751;BME280;30477;48.224;11.470;2023-04-15T06:25:37;94996.16;;;5.35;70.25
44751;BME280;30477;48.224;11.470;2023-04-15T06:28:02;94997.50;;;5.39;70.18
44751;BME280;30477;48.224;11.470;2023-04-15T06:30:28;95001.03;;;5.38;69.97
44751;BME280;30477;48.224;11.470;2023-04-15T06:32:53;95003.44;;;5.39;69.72
44751;BME280;30477;48.224;11.470;2023-04-15T06:35:19;95008.19;;;5.44;69.84
44751;BME280;30477;48.224;11.470;2023-04-15T06:37:44;95007.38;;;5.43;69.58
44751;BME280;30477;48.224;11.470;2023-04-15T06:40:10;95004.94;;;5.52;69.81
44751;BME280;30477;48.224;11.470;2023-04-15T06:42:36;95004.69;;;5.45;69.24
44751;BME280;30477;48.224;11.470;2023-04-15T06:45:02;95008.19;;;5.44;69.23
44751;BME280;30477;48.224;11.470;2023-04-15T06:47:28;95019.53;;;5.41;69.15
44751;BME280;30477;48.224;11.470;2023-04-15T06:49:53;95010.47;;;5.47;69.41
44751;BME280;30477;48.224;11.470;2023-04-15T06:52:19;95012.22;;;5.56;68.98
44751;BME280;30477;48.224;11.470;2023-04-15T06:54:44;95012.91;;;5.68;69.01
44751;BME280;30477;48.224;11.470;2023-04-15T06:57:09;95014.53;;;5.79;68.59
44751;BME280;30477;48.224;11.470;2023-04-15T06:59:35;95016.28;;;5.88;68.41
44751;BME280;30477;48.224;11.470;2023-04-15T07:02:00;95019.25;;;5.93;68.20
44751;BME280;30477;48.224;11.470;2023-04-15T07:04:26;95010.75;;;6.02;68.22
44751;BME280;30477;48.224;11.470;2023-04-15T07:06:52;95011.03;;;6.09;67.59
44751;BME280;30477;48.224;11.470;2023-04-15T07:09:18;95011.53;;;6.13;67.58
44751;BME280;30477;48.224;11.470;2023-04-15T07:11:44;95017.03;;;6.27;67.57
44751;BME280;30477;48.224;11.470;2023-04-15T07:14:09;95020.13;;;6.41;67.22
44751;BME280;30477;48.224;11.470;2023-04-15T07:16:34;95019.81;;;6.54;67.02
44751;BME280;30477;48.224;11.470;2023-04-15T07:19:00;95018.44;;;6.59;66.52
44751;BME280;30477;48.224;11.470;2023-04-15T07:21:25;95017.28;;;6.71;66.89
44751;BME280;30477;48.224;11.470;2023-04-15T07:23:51;95022.97;;;6.75;65.78
44751;BME280;30477;48.224;11.470;2023-04-15T07:26:17;95019.31;;;6.78;65.60
44751;BME280;30477;48.224;11.470;2023-04-15T07:28:42;95019.13;;;6.89;65.49
44751;BME280;30477;48.224;11.470;2023-04-15T07:31:08;95016.00;;;7.13;65.26
44751;BME280;30477;48.224;11.470;2023-04-15T07:33:33;95017.13;;;7.28;64.87
44751;BME280;30477;48.224;11.470;2023-04-15T07:35:58;95017.53;;;7.34;64.82
44751;BME280;30477;48.224;11.470;2023-04-15T07:38:24;95018.69;;;7.57;64.56
44751;BME280;30477;48.224;11.470;2023-04-15T07:40:49;95019.44;;;7.67;63.59
44751;BME280;30477;48.224;11.470;2023-04-15T07:43:15;95014.72;;;7.81;63.43
44751;BME280;30477;48.224;11.470;2023-04-15T07:45:40;95022.34;;;8.08;63.40
44751;BME280;30477;48.224;11.470;2023-04-15T07:48:06;95008.78;;;8.50;63.25
44751;BME280;30477;48.224;11.470;2023-04-15T07:50:32;95010.78;;;8.65;61.58
44751;BME280;30477;48.224;11.470;2023-04-15T07:52:57;95012.25;;;8.41;61.03
44751;BME280;30477;48.224;11.470;2023-04-15T07:55:23;95019.31;;;8.39;61.36
44751;BME280;30477;48.224;11.470;2023-04-15T07:57:49;95015.63;;;8.68;61.64
44751;BME280;30477;48.224;11.470;2023-04-15T08:00:14;95013.28;;;8.83;60.96
44751;BME280;30477;48.224;11.470;2023-04-15T08:02:40;95014.44;;;8.88;60.46
44751;BME280;30477;48.224;11.470;2023-04-15T08:05:07;95016.00;;;8.81;59.90
44751;BME280;30477;48.224;11.470;2023-04-15T08:07:33;95008.41;;;8.80;60.32
44751;BME280;30477;48.224;11.470;2023-04-15T08:09:59;95003.63;;;8.85;59.86
44751;BME280;30477;48.224;11.470;2023-04-15T08:12:24;95008.97;;;8.91;59.65
44751;BME280;30477;48.224;11.470;2023-04-15T08:14:50;95000.19;;;9.19;60.12
44751;BME280;30477;48.224;11.470;2023-04-15T08:17:16;94996.53;;;9.46;59.33
44751;BME280;30477;48.224;11.470;2023-04-15T08:19:41;94995.06;;;9.68;58.93
44751;BME280;30477;48.224;11.470;2023-04-15T08:22:07;94986.84;;;9.56;58.44
44751;BME280;30477;48.224;11.470;2023-04-15T08:24:33;94993.41;;;9.26;57.88
44751;BME280;30477;48.224;11.470;2023-04-15T08:26:59;94995.75;;;9.03;58.18
44751;BME280;30477;48.224;11.470;2023-04-15T08:29:25;94997.34;;;8.87;58.15
44751;BME280;30477;48.224;11.470;2023-04-15T08:31:51;94991.00;;;8.73;58.45
44751;BME280;30477;48.224;11.470;2023-04-15T08:34:17;94995.00;;;8.68;59.12
44751;BME280;30477;48.224;11.470;2023-04-15T08:36:43;94992.41;;;8.68;59.14
44751;BME280;30477;48.224;11.470;2023-04-15T08:39:08;94993.69;;;8.64;59.67
44751;BME280;30477;48.224;11.470;2023-04-15T08:41:44;94997.88;;;8.65;59.41
44751;BME280;30477;48.224;11.470;2023-04-15T08:44:12;94997.19;;;8.54;59.20
44751;BME280;30477;48.224;11.470;2023-04-15T08:46:38;95000.22;;;8.50;59.62
44751;BME280;30477;48.224;11.470;2023-04-15T08:49:09;95002.59;;;8.43;59.23
44751;BME280;30477;48.224;11.470;2023-04-15T08:51:35;95006.00;;;8.44;59.86
44751;BME280;30477;48.224;11.470;2023-04-15T08:54:01;95004.63;;;8.40;59.61
44751;BME280;30477;48.224;11.470;2023-04-15T08:56:27;95001.72;;;8.34;59.71
44751;BME280;30477;48.224;11.470;2023-04-15T08:58:52;95005.75;;;8.37;60.21
44751;BME280;30477;48.224;11.470;2023-04-15T09:01:18;95018.72;;;8.45;60.11
44751;BME280;30477;48.224;11.470;2023-04-15T09:03:43;95015.88;;;8.57;60.34
44751;BME280;30477;48.224;11.470;2023-04-15T09:06:10;95021.59;;;8.68;60.31
44751;BME280;30477;48.224;11.470;2023-04-15T09:08:35;95020.78;;;8.68;59.99
44751;BME280;30477;48.224;11.470;2023-04-15T09:11:03;95025.41;;;8.56;59.67
44751;BME280;30477;48.224;11.470;2023-04-15T09:13:29;95019.63;;;8.62;59.70
44751;BME280;30477;48.224;11.470;2023-04-15T09:15:55;95022.03;;;8.56;59.78
44751;BME280;30477;48.224;11.470;2023-04-15T09:18:29;95026.56;;;8.62;59.97
44751;BME280;30477;48.224;11.470;2023-04-15T09:20:55;95024.78;;;8.62;60.03
44751;BME280;30477;48.224;11.470;2023-04-15T09:23:29;95023.47;;;8.58;59.75
44751;BME280;30477;48.224;11.470;2023-04-15T09:25:56;95028.13;;;8.54;59.63
44751;BME280;30477;48.224;11.470;2023-04-15T09:28:25;95034.41;;;8.52;59.57
44751;BME280;30477;48.224;11.470;2023-04-15T09:30:57;95029.81;;;8.64;59.92
44751;BME280;30477;48.224;11.470;2023-04-15T09:33:23;95033.41;;;8.79;60.03
44751;BME280;30477;48.224;11.470;2023-04-15T09:35:59;95038.56;;;8.79;59.56
44751;BME280;30477;48.224;11.470;2023-04-15T09:38:25;95038.84;;;8.68;59.50
44751;BME280;30477;48.224;11.470;2023-04-15T09:40:50;95030.41;;;8.58;59.55
44751;BME280;30477;48.224;11.470;2023-04-15T09:43:16;95037.16;;;8.59;59.74
44751;BME280;30477;48.224;11.470;2023-04-15T09:45:52;95032.94;;;8.49;59.86
44751;BME280;30477;48.224;11.470;2023-04-15T09:48:22;95038.16;;;8.58;60.12
44751;BME280;30477;48.224;11.470;2023-04-15T09:50:49;95042.78;;;8.54;59.83
44751;BME280;30477;48.224;11.470;2023-04-15T09:53:20;95046.84;;;8.57;59.95
44751;BME280;30477;48.224;11.470;2023-04-15T09:55:51;95035.84;;;8.54;59.81
44751;BME280;30477;48.224;11.470;2023-04-15T09:58:29;95042.78;;;8.54;59.71
44751;BME280;30477;48.224;11.470;2023-04-15T10:00:56;95040.38;;;8.52;59.93
44751;BME280;30477;48.224;11.470;2023-04-15T10:03:22;95038.44;;;8.54;60.13
44751;BME280;30477;48.224;11.470;2023-04-15T10:05:48;95042.00;;;8.53;59.91
44751;BME280;30477;48.224;11.470;2023-04-15T10:08:19;95042.50;;;8.57;59.76
44751;BME280;30477;48.224;11.470;2023-04-15T10:10:46;95040.16;;;8.72;60.25
44751;BME280;30477;48.224;11.470;2023-04-15T10:13:18;95037.84;;;8.61;59.77
44751;BME280;30477;48.224;11.470;2023-04-15T10:15:51;95035.91;;;8.63;60.05
44751;BME280;30477;48.224;11.470;2023-04-15T10:18:20;95048.56;;;8.74;60.15
44751;BME280;30477;48.224;11.470;2023-04-15T10:20:47;95051.78;;;8.76;59.76
44751;BME280;30477;48.224;11.470;2023-04-15T10:23:14;95044.91;;;8.85;59.81
44751;BME280;30477;48.224;11.470;2023-04-15T10:25:39;95053.19;;;8.97;59.45
44751;BME280;30477;48.224;11.470;2023-04-15T10:28:06;95050.13;;;9.01;59.88
44751;BME280;30477;48.224;11.470;2023-04-15T10:30:33;95048.53;;;9.08;59.36
44751;BME280;30477;48.224;11.470;2023-04-15T10:33:00;95052.75;;;9.09;59.31
44751;BME280;30477;48.224;11.470;2023-04-15T10:35:28;95049.03;;;9.12;58.78
44751;BME280;30477;48.224;11.470;2023-04-15T10:37:55;95052.53;;;9.03;58.51
44751;BME280;30477;48.224;11.470;2023-04-15T10:40:30;95046.06;;;8.99;58.49
44751;BME280;30477;48.224;11.470;2023-04-15T10:43:02;95050.94;;;9.02;58.17
44751;BME280;30477;48.224;11.470;2023-04-15T10:45:31;95050.25;;;8.91;58.31
44751;BME280;30477;48.224;11.470;2023-04-15T10:48:01;95054.47;;;9.01;58.55
44751;BME280;30477;48.224;11.470;2023-04-15T10:50:27;95054.34;;;9.10;58.46
44751;BME280;30477;48.224;11.470;2023-04-15T10:52:54;95056.13;;;9.10;58.28
44751;BME280;30477;48.224;11.470;2023-04-15T10:55:30;95053.41;;;9.20;58.26
44751;BME280;30477;48.224;11.470;2023-04-15T10:58:00;95054.91;;;9.22;58.27
44751;BME280;30477;48.224;11.470;2023-04-15T11:00:30;95057.47;;;9.22;58.57
44751;BME280;30477;48.224;11.470;2023-04-15T11:03:04;95055.72;;;9.31;58.28
44751;BME280;30477;48.224;11.470;2023-04-15T11:05:51;95058.13;;;9.24;58.04
44751;BME280;30477;48.224;11.470;2023-04-15T11:08:17;95058.13;;;9.24;58.32
44751;BME280;30477;48.224;11.470;2023-04-15T11:15:37;95046.56;;;9.37;58.68
44751;BME280;30477;48.224;11.470;2023-04-15T11:18:20;95058.47;;;9.29;58.37
44751;BME280;30477;48.224;11.470;2023-04-15T11:20:53;95062.63;;;9.22;59.03
44751;BME280;30477;48.224;11.470;2023-04-15T11:26:05;95060.53;;;9.18;58.68
44751;BME280;30477;48.224;11.470;2023-04-15T11:28:33;95056.47;;;9.15;58.78
44751;BME280;30477;48.224;11.470;2023-04-15T11:31:05;95068.56;;;9.14;58.65
44751;BME280;30477;48.224;11.470;2023-04-15T11:33:33;95058.09;;;9.16;58.89
44751;BME280;30477;48.224;11.470;2023-04-15T11:36:00;95057.44;;;9.14;58.59
44751;BME280;30477;48.224;11.470;2023-04-15T11:38:26;95061.63;;;9.15;58.81
44751;BME280;30477;48.224;11.470;2023-04-15T11:40:52;95063.09;;;9.09;58.54
44751;BME280;30477;48.224;11.470;2023-04-15T11:43:21;95063.50;;;8.97;58.50
44751;BME280;30477;48.224;11.470;2023-04-15T11:45:58;95074.94;;;8.94;58.63
44751;BME280;30477;48.224;11.470;2023-04-15T11:48:25;95067.03;;;8.96;58.82
44751;BME280;30477;48.224;11.470;2023-04-15T11:50:58;95068.84;;;9.03;58.96
44751;BME280;30477;48.224;11.470;2023-04-15T11:53:35;95082.75;;;9.10;58.81
44751;BME280;30477;48.224;11.470;2023-04-15T11:56:01;95079.03;;;9.13;58.33
44751;BME280;30477;48.224;11.470;2023-04-15T11:58:28;95079.38;;;9.10;57.83
44751;BME280;30477;48.224;11.470;2023-04-15T12:00:58;95070.97;;;9.08;57.58
44751;BME280;30477;48.224;11.470;2023-04-15T12:03:39;95066.31;;;9.11;57.13
44751;BME280;30477;48.224;11.470;2023-04-15T12:06:31;95082.09;;;9.08;56.00
44751;BME280;30477;48.224;11.470;2023-04-15T12:09:11;95076.47;;;9.13;55.76
44751;BME280;30477;48.224;11.470;2023-04-15T12:11:51;95076.47;;;9.13;55.68
44751;BME280;30477;48.224;11.470;2023-04-15T12:14:27;95085.03;;;9.22;55.54
44751;BME280;30477;48.224;11.470;2023-04-15T12:16:54;95098.47;;;9.25;55.29
44751;BME280;30477;48.224;11.470;2023-04-15T12:19:29;95083.47;;;9.29;54.71
44751;BME280;30477;48.224;11.470;2023-04-15T12:22:01;95094.56;;;9.21;53.63
44751;BME280;30477;48.224;11.470;2023-04-15T12:24:30;95091.19;;;9.21;53.20
44751;BME280;30477;48.224;11.470;2023-04-15T12:26:56;95092.00;;;9.21;52.16
44751;BME280;30477;48.224;11.470;2023-04-15T12:29:27;95097.28;;;9.20;51.26
44751;BME280;30477;48.224;11.470;2023-04-15T12:32:12;95099.06;;;9.19;51.28
44751;BME280;30477;48.224;11.470;2023-04-15T12:34:43;95104.84;;;9.13;51.58
44751;BME280;30477;48.224;11.470;2023-04-15T12:37:10;95111.94;;;9.11;51.56
44751;BME280;30477;48.224;11.470;2023-04-15T12:39:39;95110.69;;;9.15;51.64
44751;BME280;30477;48.224;11.470;2023-04-15T12:42:05;95114.56;;;9.19;51.41
44751;BME280;30477;48.224;11.470;2023-04-15T12:44:31;95118.41;;;9.15;50.87
44751;BME280;30477;48.224;11.470;2023-04-15T12:46:58;95120.97;;;9.07;50.36
44751;BME280;30477;48.224;11.470;2023-04-15T12:49:24;95125.19;;;9.08;50.52
44751;BME280;30477;48.224;11.470;2023-04-15T12:51:54;95124.19;;;9.09;50.79
44751;BME280;30477;48.224;11.470;2023-04-15T12:54:20;95127.28;;;9.12;50.89
44751;BME280;30477;48.224;11.470;2023-04-15T12:56:46;95131.66;;;9.12;51.12
44751;BME280;30477;48.224;11.470;2023-04-15T12:59:13;95132.91;;;9.08;51.05
44751;BME280;30477;48.224;11.470;2023-04-15T13:01:38;95129.97;;;9.03;51.64
44751;BME280;30477;48.224;11.470;2023-04-15T13:04:04;95131.28;;;9.07;51.89
44751;BME280;30477;48.224;11.470;2023-04-15T13:06:30;95138.88;;;9.08;51.95